Aérodrome :
LOGIN :

S'inscrire | Disclaimer

   EN    FR    IT 

 










Légende :    VFR   VFR Marginal   IFR   IFR Intensif   IFR Très Intensif
Visi : 
Plafond : 
>= 8 km
>= 3000ft
5 à 8 km
1000 à 3000 ft
1500m à 5 km
500 à 1000 ft
800 à 1500m
200 à 500 ft
< 800m
< 200 ft
Symboles :   Orages  Brouillard  Fortes neiges  Fortes précipitations  Vent > 20 kt
SIGMETs :   Divers  Orages  Givrage  Turbulence  Onde Orograph.  Cendres Volcan.







- Altitude de l'aérodrome : 1906 ft
- Code IATA : INN


LOWI - Innsbruck

DERNIER METAR :
  • 261620Z 13004KT 100V160 9999 FEW035 BKN050 11/05 Q1018 NOSIG

METARs EXPIRÉS :
  • 261550Z VRB02KT 9999 FEW040 BKN050 11/05 Q1018 NOSIG
  • 261520Z VRB02KT 9999 FEW032 BKN045 11/06 Q1018 NOSIG
  • 261450Z VRB02KT 9999 FEW030 BKN045 11/05 Q1019 NOSIG
  • 261420Z 12005KT 070V220 9999 FEW035 BKN044 11/04 Q1019 NOSIG
  • 261350Z 08005KT 030V130 9999 FEW030 BKN042 11/04 Q1019 NOSIG

TAF TAF LOWI
Valide du 26 à 12h jusqu'au 27 à 12h UTC


261115Z 2612/2712 09006KT 9999 FEW020 BKN050 TX20/2712Z TN07/2704Z
PROB30 2702/2705 FEW005 BKN012
BECMG 2705/2707 27008KT
BECMG 2708/2710 12012G25KT
TEMPO 2710/2712 13018G35KT
Pas de NOTAMs connus pour ce terrain.
1 SIGMET publié pour la FIR Wien (LOVV) :
 
Orages en lignes de grains
LOVV SIGMET 1 VALID 261451/261630 LOWW
LOVV WIEN FIR SQL TS OBS AT 1451Z WI N4640 E01230 - N4710 E01415 - N4655 E01450 - N4630 E01325 - N4640 E01230 TOP FL360 NC FCST AT 1630Z WI N4700 E01455 - N4635 E01515 - N4620 E01435 - N4630 E01305 - N4700 E01455=



MET'MAP, la Météo Aéronautique d'un coup d'oeil ! - Copyright ORBIFLY Décembre 2007 - Disclaimer

ORBIFLY MET'MAP TEAM :

Programmation & Développement : Alexandra Zaïnal
Conception & Développement : Baudouin d'Aumeries
Co-Programmation & Développement : Marc-Olivier Méhu
Soutien technique & logistique : Manuel Goepfert

Contact : metmap@orbifly.com




SOURCES & CREDITS :

   NOAA